Boone Observed Data For Previous 48 Hours

Caption
Day and Hour Reservoir Elevation (behind dam)* Tailwater Elevation (below dam)* Average Hourly Discharge*
1/15/2018 2 AM EST 1,352.68 1,262.46 186
1/15/2018 3 AM EST 1,352.71 1,263.08 3,257
1/15/2018 4 AM EST 1,352.70 1,263.03 3,301
1/15/2018 5 AM EST 1,352.67 1,262.98 3,146
1/15/2018 6 AM EST 1,352.64 1,262.97 3,287
1/15/2018 7 AM EST 1,352.58 1,262.97 3,288
1/15/2018 8 AM EST 1,352.53 1,262.98 3,399
1/15/2018 9 AM EST 1,352.46 1,263.18 3,078
1/15/2018 10 AM EST 1,352.43 1,263.01 3,197
1/15/2018 11 AM EST 1,352.52 1,260.39 44
1/15/2018 12 PM EST 1,352.63 1,260.26 0
1/15/2018 1 PM EST 1,352.70 1,260.23 0
1/15/2018 2 PM EST 1,352.76 1,260.22 0
1/15/2018 3 PM EST 1,352.82 1,260.22 0
1/15/2018 4 PM EST 1,352.91 1,260.22 0
1/15/2018 5 PM EST 1,353.01 1,260.22 0
1/15/2018 6 PM EST 1,353.06 1,262.53 209
1/15/2018 7 PM EST 1,353.06 1,263.07 3,437
1/15/2018 8 PM EST 1,353.01 1,263.11 3,316
1/15/2018 9 PM EST 1,352.95 1,263.08 3,352
1/15/2018 10 PM EST 1,352.92 1,263.07 3,395
1/15/2018 11 PM EST 1,352.91 1,263.04 3,303
1/16/2018 12 AM EST 1,352.89 1,263.04 3,292
1/16/2018 1 AM EST 1,352.96 1,260.30 62
1/16/2018 2 AM EST 1,353.04 1,260.26 0
1/16/2018 3 AM EST 1,353.10 1,260.25 0
1/16/2018 4 AM EST 1,353.20 1,260.25 0
1/16/2018 5 AM EST 1,353.30 1,260.25 0
1/16/2018 6 AM EST 1,353.38 1,260.25 0
1/16/2018 7 AM EST 1,353.44 1,260.25 0
1/16/2018 8 AM EST 1,353.44 1,262.34 191
1/16/2018 9 AM EST 1,353.40 1,263.10 3,262
1/16/2018 10 AM EST 1,353.41 1,263.07 3,460
1/16/2018 11 AM EST 1,353.40 1,262.98 3,412
1/16/2018 12 PM EST 1,353.47 1,260.30 56
1/16/2018 1 PM EST 1,353.55 1,260.25 0
1/16/2018 2 PM EST 1,353.61 1,260.24 0
1/16/2018 3 PM EST 1,353.67 1,260.24 0
1/16/2018 4 PM EST 1,353.71 1,262.41 201
1/16/2018 5 PM EST 1,353.75 1,263.01 3,336
1/16/2018 6 PM EST 1,353.71 1,263.06 3,377
1/16/2018 7 PM EST 1,353.69 1,263.15 3,390
1/16/2018 8 PM EST 1,353.62 1,263.15 3,678
1/16/2018 9 PM EST 1,353.53 1,263.31 4,006
1/16/2018 10 PM EST 1,353.51 1,263.10 4,021
1/16/2018 11 PM EST 1,353.46 1,263.17 4,026
1/17/2018 12 AM EST 1,353.37 1,263.11 4,026
1/17/2018 1 AM EST 1,353.29 1,263.23 4,035
1/17/2018 2 AM EST 1,353.23 1,263.09 3,406
1/17/2018 3 AM EST 1,353.20 1,263.08 3,454
1/17/2018 4 AM EST 1,353.19 1,263.17 3,510
1/17/2018 5 AM EST 1,353.16 1,263.04 3,608
1/17/2018 6 AM EST 1,353.09 1,263.14 3,524
1/17/2018 7 AM EST 1,353.03 1,263.08 3,475
1/17/2018 8 AM EST 1,353.00 1,263.08 3,325
1/17/2018 9 AM EST 1,352.98 1,263.16 3,312
1/17/2018 10 AM EST 1,352.96 1,263.14 3,503
1/17/2018 11 AM EST 1,352.93 1,263.10 3,195
1/17/2018 12 PM EST 1,352.90 1,262.81 3,035
1/17/2018 1 PM EST 1,352.95 1,260.73 51
1/17/2018 2 PM EST 1,353.04 1,260.38 0
1/17/2018 3 PM EST 1,353.05 1,262.20 166
1/17/2018 4 PM EST 1,353.09 1,262.93 3,053
1/17/2018 5 PM EST 1,353.05 1,263.19 3,351
1/17/2018 6 PM EST 1,353.00 1,262.85 3,491
1/17/2018 7 PM EST 1,352.94 1,263.03 3,442
1/17/2018 8 PM EST 1,352.90 1,262.95 3,276
1/17/2018 9 PM EST 1,352.89 1,263.01 3,277
1/17/2018 10 PM EST 1,352.84 1,263.07 3,282

Elevations are in feet above sea level. Discharges are in cubic feet per second and are reported at the end of the hour.